Time;durP1;ratioP1;P1;durP2;ratioP2;P2;SDS_P1;SDS_P2;PMS_P1;PMS_P2;Temp;Humidity;BMP_temperature;BMP_pressure;BME280_temperature;BME280_humidity;BME280_pressure;Samples;Min_cycle;Max_cycle;Signal;HPM_P1;HPM_P2
2022/06/22 00:00:21;;;;;;;;;;;;;;;25.77;28.50;98810.59;4408447;32;33827;-92
2022/06/22 00:02:48;;;;;;;;;;;;;;;25.91;28.19;98809.84;4408473;32;34166;-93
2022/06/22 00:05:17;;;;;;;;;;;;;;;25.99;28.03;98820.91;4421182;32;35041;-88
2022/06/22 00:07:54;;;;;;;;;;;;;;;25.98;28.09;98820.97;4408308;32;33995;-91
2022/06/22 00:10:24;;;;;;;;;;;;;;;26.03;27.99;98814.50;4408764;32;33746;-93
2022/06/22 00:12:53;;;;;;;;;;;;;;;25.84;28.05;98814.66;4408251;32;33737;-91
2022/06/22 00:15:21;;;;;;;;;;;;;;;25.78;28.25;98814.09;4408476;32;34364;-90
2022/06/22 00:17:48;;;;;;;;;;;;;;;25.79;28.41;98811.37;4422415;32;34980;-93
2022/06/22 00:20:18;;;;;;;;;;;;;;;25.94;28.18;98809.66;4422197;32;34176;-91
2022/06/22 00:22:47;;;;;;;;;;;;;;;25.69;28.43;98811.00;4408539;32;34036;-92
2022/06/22 00:25:20;;;;;;;;;;;;;;;25.70;28.61;98807.41;4408007;32;34323;-92
2022/06/22 00:27:47;;;;;;;;;;;;;;;25.82;28.51;98810.34;4408598;32;33995;-92
2022/06/22 00:30:23;;;;;;;;;;;;;;;25.76;28.56;98815.97;4422237;32;32948;-92
2022/06/22 00:33:02;;;;;;;;;;;;;;;25.67;28.75;98820.00;4407755;32;34483;-93
2022/06/22 00:35:35;;;;;;;;;;;;;;;25.76;28.49;98816.84;4408586;32;34398;-92
2022/06/22 00:38:05;;;;;;;;;;;;;;;25.82;28.30;98819.19;4422153;32;34726;-91
2022/06/22 00:40:33;;;;;;;;;;;;;;;25.82;28.42;98826.28;4408273;32;33830;-92
2022/06/22 00:43:00;;;;;;;;;;;;;;;25.59;28.75;98824.84;4407852;32;34026;-93
2022/06/22 00:45:29;;;;;;;;;;;;;;;25.67;28.44;98823.50;4395037;32;34409;-93
2022/06/22 00:48:01;;;;;;;;;;;;;;;25.74;28.39;98816.06;4408302;32;34253;-91
2022/06/22 00:50:36;;;;;;;;;;;;;;;25.77;28.30;98813.25;4408417;32;34034;-93
2022/06/22 00:53:05;;;;;;;;;;;;;;;25.65;28.58;98813.91;4408054;32;33815;-93
2022/06/22 00:55:34;;;;;;;;;;;;;;;25.56;28.83;98809.09;4408251;32;34370;-92
2022/06/22 00:58:04;;;;;;;;;;;;;;;25.52;28.88;98800.44;4408035;32;33797;-92
2022/06/22 01:00:32;;;;;;;;;;;;;;;25.59;28.79;98815.09;4421645;32;34437;-92
2022/06/22 01:03:24;;;;;;;;;;;;;;;25.51;28.90;98813.81;4422025;32;34233;-91
2022/06/22 01:05:51;;;;;;;;;;;;;;;25.91;28.37;98825.78;4414183;32;34365;-91
2022/06/22 01:08:26;;;;;;;;;;;;;;;25.56;28.83;98819.72;4421698;32;34314;-93
2022/06/22 01:10:59;;;;;;;;;;;;;;;25.50;29.01;98817.41;4392998;32;33457;-93
2022/06/22 01:13:37;;;;;;;;;;;;;;;25.64;28.71;98822.81;4392900;32;33775;-93
2022/06/22 01:16:06;;;;;;;;;;;;;;;25.53;28.86;98825.19;4392928;32;34851;-93
2022/06/22 01:18:35;;;;;;;;;;;;;;;25.55;28.84;98818.84;4394883;32;34617;-91
2022/06/22 01:21:05;;;;;;;;;;;;;;;25.53;29.06;98828.69;4408358;32;33124;-92
2022/06/22 01:23:32;;;;;;;;;;;;;;;25.58;28.89;98823.16;4421891;32;34223;-86
2022/06/22 01:26:12;;;;;;;;;;;;;;;25.64;29.02;98810.38;4422040;32;33984;-88
2022/06/22 01:28:40;;;;;;;;;;;;;;;25.56;29.07;98809.09;4407784;32;34116;-92
2022/06/22 01:31:13;;;;;;;;;;;;;;;25.41;29.35;98821.38;4421881;32;34170;-92
2022/06/22 01:33:45;;;;;;;;;;;;;;;25.58;29.25;98813.38;4408329;32;34692;-92
2022/06/22 01:36:17;;;;;;;;;;;;;;;25.38;29.35;98832.16;4421790;32;34519;-93
2022/06/22 01:38:44;;;;;;;;;;;;;;;25.40;29.29;98809.91;4394832;32;33347;-92
2022/06/22 01:41:18;;;;;;;;;;;;;;;25.44;29.20;98810.63;4421662;32;33309;-94
2022/06/22 01:43:54;;;;;;;;;;;;;;;25.17;29.61;98824.41;4421757;32;34092;-92
2022/06/22 01:46:40;;;;;;;;;;;;;;;25.27;29.55;98823.91;4392738;32;33807;-91
2022/06/22 01:49:12;;;;;;;;;;;;;;;25.65;28.92;98816.56;4406635;32;33789;-92
2022/06/22 01:51:41;;;;;;;;;;;;;;;25.55;29.40;98818.84;4392768;32;33190;-92
2022/06/22 01:54:21;;;;;;;;;;;;;;;25.60;29.50;98811.50;4394201;32;34631;-92
2022/06/22 01:56:59;;;;;;;;;;;;;;;25.15;29.87;98809.50;4408054;32;33417;-91
2022/06/22 01:59:29;;;;;;;;;;;;;;;25.47;29.21;98806.00;4407777;32;34112;-92
2022/06/22 02:02:10;;;;;;;;;;;;;;;25.38;29.30;98816.25;4421673;32;33460;-93
2022/06/22 02:05:04;;;;;;;;;;;;;;;25.47;28.79;98813.09;4408125;32;34044;-93
2022/06/22 02:07:45;;;;;;;;;;;;;;;25.53;28.75;98819.87;4413186;32;33843;-92
2022/06/22 02:10:31;;;;;;;;;;;;;;;25.56;28.75;98819.72;4395732;32;33080;-91
2022/06/22 02:13:17;;;;;;;;;;;;;;;25.48;28.85;98820.13;4421318;32;32981;-91
2022/06/22 02:15:54;;;;;;;;;;;;;;;25.61;28.51;98815.88;4421480;32;33780;-91
2022/06/22 02:18:24;;;;;;;;;;;;;;;25.50;28.72;98831.53;4420621;32;34263;-89
2022/06/22 02:20:52;;;;;;;;;;;;;;;25.48;28.67;98849.31;4421290;32;34880;-92
2022/06/22 02:23:40;;;;;;;;;;;;;;;25.39;28.61;98855.13;4404595;32;33105;-90
2022/06/22 02:26:28;;;;;;;;;;;;;;;25.26;28.91;98849.59;4421534;32;35149;-91
2022/06/22 02:28:55;;;;;;;;;;;;;;;25.38;28.75;98853.38;4389945;32;34273;-92
2022/06/22 02:31:22;;;;;;;;;;;;;;;25.38;29.11;98853.38;4421148;32;34324;-92
2022/06/22 02:33:52;;;;;;;;;;;;;;;25.54;28.73;98846.34;4407429;32;32787;-90
2022/06/22 02:36:19;;;;;;;;;;;;;;;25.43;29.06;98857.53;4407765;32;33948;-93
2022/06/22 02:38:48;;;;;;;;;;;;;;;25.22;29.15;98843.56;4421495;32;34455;-92
2022/06/22 02:46:48;;;;;;;;;;;;;;;25.35;28.77;98854.44;4409075;32;35100;-92
2022/06/22 02:49:19;;;;;;;;;;;;;;;25.35;28.73;98857.09;4394324;32;33882;-91
2022/06/22 02:51:46;;;;;;;;;;;;;;;25.22;28.95;98862.16;4406847;32;34386;-89
2022/06/22 02:54:20;;;;;;;;;;;;;;;25.05;29.33;98866.59;4407120;32;34095;-91
2022/06/22 02:56:47;;;;;;;;;;;;;;;25.18;29.17;98868.56;4407260;32;34664;-91
2022/06/22 02:59:14;;;;;;;;;;;;;;;25.14;29.38;98874.97;4406701;32;35018;-92
2022/06/22 03:01:42;;;;;;;;;;;;;;;24.96;29.89;98879.41;4406630;32;34039;-90
2022/06/22 03:04:10;;;;;;;;;;;;;;;25.10;29.62;98885.81;4406965;32;34176;-91
2022/06/22 03:06:38;;;;;;;;;;;;;;;25.07;29.78;98880.63;4420769;32;34762;-93
2022/06/22 03:09:05;;;;;;;;;;;;;;;25.09;29.72;98894.69;4406952;32;35160;-91
2022/06/22 03:11:33;;;;;;;;;;;;;;;25.07;29.76;98885.94;4394678;32;33538;-92
2022/06/22 03:14:03;;;;;;;;;;;;;;;24.96;29.85;98884.69;4407081;32;33516;-92
2022/06/22 03:16:32;;;;;;;;;;;;;;;25.07;29.78;98884.12;4421133;32;33793;-92
2022/06/22 03:19:01;;;;;;;;;;;;;;;25.00;30.11;98890.69;4420366;32;35148;-93
2022/06/22 03:21:28;;;;;;;;;;;;;;;24.87;30.46;98881.63;4406925;32;33670;-93
2022/06/22 03:23:57;;;;;;;;;;;;;;;24.99;30.33;98884.53;4406865;32;33380;-92
2022/06/22 03:26:26;;;;;;;;;;;;;;;24.87;30.55;98895.75;4406492;32;35038;-92
2022/06/22 03:29:04;;;;;;;;;;;;;;;24.86;30.68;98899.34;4406897;32;34838;-93
2022/06/22 03:31:33;;;;;;;;;;;;;;;24.73;31.04;98906.19;4408831;32;33358;-92
2022/06/22 03:34:02;;;;;;;;;;;;;;;24.79;31.06;98903.22;4408733;32;32939;-93
2022/06/22 03:36:41;;;;;;;;;;;;;;;24.53;31.51;98888.59;4408642;32;33980;-93
2022/06/22 03:39:10;;;;;;;;;;;;;;;24.71;31.28;98885.06;4408199;32;34158;-93
2022/06/22 03:41:48;;;;;;;;;;;;;;;24.97;31.65;98901.47;4409064;32;34189;-93
2022/06/22 03:44:17;;;;;;;;;;;;;;;24.76;31.59;98893.63;4408576;32;33361;-93
2022/06/22 03:46:54;;;;;;;;;;;;;;;24.57;31.60;98887.53;4422209;32;33690;-93
2022/06/22 03:49:24;;;;;;;;;;;;;;;24.86;31.32;98880.78;4408567;32;33532;-91
2022/06/22 03:51:51;;;;;;;;;;;;;;;24.82;31.58;98892.47;4422387;32;34854;-93
2022/06/22 03:54:25;;;;;;;;;;;;;;;25.85;29.83;98877.44;4408737;32;33434;-92
2022/06/22 03:56:54;;;;;;;;;;;;;;;25.56;30.01;98868.34;4395654;32;32662;-91
2022/06/22 03:59:22;;;;;;;;;;;;;;;25.45;30.53;98870.72;4396481;32;34284;-92
2022/06/22 04:01:49;;;;;;;;;;;;;;;23.89;33.12;98857.19;4407613;32;34476;-92
2022/06/22 04:04:16;;;;;;;;;;;;;;;24.54;32.20;98852.34;4408216;32;33067;-90
2022/06/22 04:06:44;;;;;;;;;;;;;;;24.75;31.97;98843.34;4421717;32;33380;-91
2022/06/22 04:09:18;;;;;;;;;;;;;;;25.26;31.04;98843.44;4407834;32;35210;-91
2022/06/22 04:11:51;;;;;;;;;;;;;;;26.05;30.03;98836.50;4408402;32;34098;-93
2022/06/22 04:14:20;;;;;;;;;;;;;;;26.24;29.67;98832.81;4421835;32;32531;-93
2022/06/22 04:16:49;;;;;;;;;;;;;;;26.48;29.24;98838.53;4408397;32;33924;-92
2022/06/22 04:19:37;;;;;;;;;;;;;;;25.94;30.39;98831.78;4408403;32;35040;-91
2022/06/22 04:22:09;;;;;;;;;;;;;;;25.61;31.72;98828.28;4411965;32;35041;-93
2022/06/22 04:24:51;;;;;;;;;;;;;;;26.17;30.49;98830.47;4395861;32;32659;-94
2022/06/22 04:27:20;;;;;;;;;;;;;;;26.36;30.52;98838.28;4408433;32;33898;-91
2022/06/22 04:29:52;;;;;;;;;;;;;;;26.36;30.68;98832.09;4408469;32;33966;-94
2022/06/22 04:32:21;;;;;;;;;;;;;;;26.32;30.04;98826.09;4408897;32;35182;-92
2022/06/22 04:35:03;;;;;;;;;;;;;;;25.79;30.62;98837.06;4407794;32;33678;-87
2022/06/22 04:37:33;;;;;;;;;;;;;;;26.12;30.22;98829.91;4408130;32;34372;-88
2022/06/22 04:40:09;;;;;;;;;;;;;;;26.54;29.91;98823.09;4421887;32;34511;-93
2022/06/22 04:42:36;;;;;;;;;;;;;;;26.75;29.50;98829.00;4395900;32;33013;-93
2022/06/22 04:45:04;;;;;;;;;;;;;;;27.07;30.32;98840.34;4406798;32;33832;-89
2022/06/22 04:47:32;;;;;;;;;;;;;;;27.15;29.32;98848.75;4407370;32;34016;-88
2022/06/22 04:50:04;;;;;;;;;;;;;;;25.87;31.17;98850.78;4421696;32;35323;-90
2022/06/22 04:52:37;;;;;;;;;;;;;;;26.79;29.19;98850.94;4421752;32;34007;-90
2022/06/22 04:55:04;;;;;;;;;;;;;;;27.99;28.50;98845.38;4398205;32;33174;-89
2022/06/22 04:57:33;;;;;;;;;;;;;;;28.16;27.67;98846.97;4421623;32;34409;-90
2022/06/22 05:00:03;;;;;;;;;;;;;;;27.64;28.59;98859.06;4421528;32;35142;-89
2022/06/22 05:02:31;;;;;;;;;;;;;;;28.14;27.79;98868.38;4407707;32;34215;-90
2022/06/22 05:05:02;;;;;;;;;;;;;;;28.57;26.97;98862.97;4407563;32;32951;-90
2022/06/22 05:07:44;;;;;;;;;;;;;;;28.91;26.27;98860.72;4407229;32;34192;-87
2022/06/22 05:10:22;;;;;;;;;;;;;;;29.22;25.76;98869.34;4407671;32;34717;-88
2022/06/22 05:12:53;;;;;;;;;;;;;;;28.05;27.26;98866.31;4407832;32;34303;-88
2022/06/22 05:15:27;;;;;;;;;;;;;;;27.93;28.36;98876.91;4407766;32;33130;-85
2022/06/22 05:17:54;;;;;;;;;;;;;;;27.41;28.29;98881.78;4407853;32;34309;-88
2022/06/22 05:20:42;;;;;;;;;;;;;;;28.01;27.79;98877.28;4408125;32;34147;-88
2022/06/22 05:23:09;;;;;;;;;;;;;;;28.11;28.14;98889.91;4407431;32;34272;-87
2022/06/22 05:25:37;;;;;;;;;;;;;;;28.73;27.72;98891.31;4407773;32;33020;-87
2022/06/22 05:28:05;;;;;;;;;;;;;;;27.66;28.78;98906.94;4407862;32;34922;-87
2022/06/22 05:30:37;;;;;;;;;;;;;;;28.48;27.43;98903.56;4407696;32;34216;-88
2022/06/22 05:33:14;;;;;;;;;;;;;;;28.07;27.88;98907.06;4408738;32;34014;-87
2022/06/22 05:35:42;;;;;;;;;;;;;;;28.29;27.30;98897.69;4407848;32;32694;-87
2022/06/22 05:38:10;;;;;;;;;;;;;;;29.03;27.43;98899.97;4407623;32;35104;-88
2022/06/22 05:40:38;;;;;;;;;;;;;;;29.60;25.73;98900.59;4421592;32;34277;-87
2022/06/22 05:43:05;;;;;;;;;;;;;;;28.94;26.80;98894.34;4421670;32;33942;-88
2022/06/22 05:45:42;;;;;;;;;;;;;;;27.54;28.31;98908.53;4407398;32;32848;-88
2022/06/22 05:48:15;;;;;;;;;;;;;;;28.80;26.56;98905.94;4394910;32;33123;-88
2022/06/22 05:50:49;;;;;;;;;;;;;;;28.17;26.62;98904.66;4421650;32;34802;-89
2022/06/22 05:53:19;;;;;;;;;;;;;;;29.12;25.93;98910.97;4407054;32;33861;-88
2022/06/22 05:55:48;;;;;;;;;;;;;;;29.09;25.62;98894.22;4407927;32;32931;-86
2022/06/22 05:58:18;;;;;;;;;;;;;;;28.47;26.42;98896.53;4408335;32;33893;-86
2022/06/22 06:00:50;;;;;;;;;;;;;;;27.60;27.42;98910.81;4407506;32;35055;-87
2022/06/22 06:03:17;;;;;;;;;;;;;;;28.16;26.65;98905.63;4407538;32;34105;-86
2022/06/22 06:05:49;;;;;;;;;;;;;;;28.61;27.14;98917.81;4407643;32;33836;-87
2022/06/22 06:08:37;;;;;;;;;;;;;;;26.85;28.43;98914.41;4421397;32;34946;-87
2022/06/22 06:11:04;;;;;;;;;;;;;;;27.43;28.21;98919.00;4421375;32;34916;-85
2022/06/22 06:13:39;;;;;;;;;;;;;;;26.36;29.80;98919.81;4394971;32;34204;-87
2022/06/22 06:16:08;;;;;;;;;;;;;;;27.40;28.78;98920.03;4407567;32;33966;-88
2022/06/22 06:18:36;;;;;;;;;;;;;;;27.60;28.17;98913.47;4407490;32;34650;-87
2022/06/22 06:21:07;;;;;;;;;;;;;;;28.41;27.10;98926.25;4421218;32;34265;-88
2022/06/22 06:23:36;;;;;;;;;;;;;;;27.92;27.91;98918.69;4407680;32;34175;-86
2022/06/22 06:29:00;;;;;;;;;;;;;;;27.63;28.63;98921.28;4409287;32;33966;-88
2022/06/22 06:31:36;;;;;;;;;;;;;;;25.67;31.41;98924.38;4407313;32;34447;-88
2022/06/22 06:34:08;;;;;;;;;;;;;;;26.23;30.81;98911.66;4407712;32;34130;-88
2022/06/22 06:36:39;;;;;;;;;;;;;;;27.41;29.59;98912.88;4421313;32;32730;-88
2022/06/22 06:39:08;;;;;;;;;;;;;;;26.54;30.78;98905.53;4407077;32;34267;-87
2022/06/22 06:41:41;;;;;;;;;;;;;;;27.00;30.41;98913.50;4407200;32;33735;-88
2022/06/22 06:44:18;;;;;;;;;;;;;;;27.58;29.18;98907.41;4407091;32;34931;-87
2022/06/22 06:46:47;;;;;;;;;;;;;;;27.52;29.67;98898.94;4407083;32;34137;-88
2022/06/22 06:49:32;;;;;;;;;;;;;;;27.60;29.07;98908.16;4408438;32;34360;-87
2022/06/22 06:52:04;;;;;;;;;;;;;;;27.59;29.08;98901.13;4394747;32;34932;-88
2022/06/22 06:54:36;;;;;;;;;;;;;;;26.93;29.84;98912.16;4407155;32;33881;-88
2022/06/22 06:57:04;;;;;;;;;;;;;;;25.85;30.66;98922.59;4407029;32;33194;-84
2022/06/22 06:59:31;;;;;;;;;;;;;;;26.23;31.95;98911.66;4407211;32;34757;-87
2022/06/22 07:02:04;;;;;;;;;;;;;;;26.58;30.58;98917.69;4421013;32;34747;-90
2022/06/22 07:04:33;;;;;;;;;;;;;;;25.60;31.61;98922.12;4397393;32;33605;-89
2022/06/22 07:07:02;;;;;;;;;;;;;;;26.33;30.21;98917.31;4412001;32;32900;-86
2022/06/22 07:09:31;;;;;;;;;;;;;;;26.64;29.63;98905.88;4425723;32;34064;-87
2022/06/22 07:12:19;;;;;;;;;;;;;;;26.23;29.99;98906.34;4411667;32;35242;-87
2022/06/22 07:14:46;;;;;;;;;;;;;;;26.66;28.15;98891.53;4425320;32;34001;-87
2022/06/22 07:17:14;;;;;;;;;;;;;;;27.19;26.79;98885.84;4411863;32;34190;-86
2022/06/22 07:19:41;;;;;;;;;;;;;;;26.09;28.71;98888.50;4411604;32;33833;-88
2022/06/22 07:22:11;;;;;;;;;;;;;;;27.60;27.08;98878.88;4425396;32;34319;-87
2022/06/22 07:24:41;;;;;;;;;;;;;;;27.04;26.71;98880.44;4411853;32;34803;-87
2022/06/22 07:27:23;;;;;;;;;;;;;;;26.37;28.11;98871.06;4411951;32;34067;-87
2022/06/22 07:29:54;;;;;;;;;;;;;;;26.73;28.26;98877.88;4412058;32;33860;-86
2022/06/22 07:32:34;;;;;;;;;;;;;;;27.68;27.33;98886.38;4411503;32;34526;-87
2022/06/22 07:35:08;;;;;;;;;;;;;;;28.03;26.69;98883.34;4425352;32;35162;-87
2022/06/22 07:37:40;;;;;;;;;;;;;;;28.04;25.10;98877.94;4411535;32;32220;-87
2022/06/22 07:40:08;;;;;;;;;;;;;;;27.03;27.36;98881.41;4411738;32;33749;-87
2022/06/22 07:42:35;;;;;;;;;;;;;;;27.28;26.56;98886.16;4411374;32;35167;-87
2022/06/22 07:45:03;;;;;;;;;;;;;;;28.92;25.04;98891.78;4425170;32;34436;-88
2022/06/22 07:47:38;;;;;;;;;;;;;;;27.38;26.08;98881.97;4411259;32;33381;-88
2022/06/22 07:50:24;;;;;;;;;;;;;;;27.61;26.76;98885.03;4411314;32;34321;-88
2022/06/22 07:52:54;;;;;;;;;;;;;;;28.50;25.83;98877.66;4425052;32;34179;-89
2022/06/22 07:55:21;;;;;;;;;;;;;;;28.54;25.22;98878.31;4411168;32;35203;-86
2022/06/22 07:58:08;;;;;;;;;;;;;;;28.16;25.97;98884.28;4425324;32;33356;-89
2022/06/22 08:00:35;;;;;;;;;;;;;;;27.43;26.50;98873.72;4411255;32;34129;-87
2022/06/22 08:03:04;;;;;;;;;;;;;;;27.11;27.21;98892.47;4424922;32;35162;-87
2022/06/22 08:05:33;;;;;;;;;;;;;;;28.63;25.54;98875.03;4410878;32;34343;-88
2022/06/22 08:08:00;;;;;;;;;;;;;;;29.16;25.18;98869.75;4411229;32;33019;-86
2022/06/22 08:10:32;;;;;;;;;;;;;;;28.77;26.39;98866.97;4424598;32;35050;-86
2022/06/22 08:13:08;;;;;;;;;;;;;;;27.35;27.05;98860.00;4411368;32;34327;-86
2022/06/22 08:15:40;;;;;;;;;;;;;;;29.88;23.10;98852.25;4409822;32;35058;-87
2022/06/22 08:18:08;;;;;;;;;;;;;;;29.05;24.24;98851.78;4408349;32;33769;-89
2022/06/22 08:20:37;;;;;;;;;;;;;;;29.74;24.35;98855.06;4408504;32;35183;-87
2022/06/22 08:23:05;;;;;;;;;;;;;;;29.96;24.08;98860.56;4395769;32;33441;-88
2022/06/22 08:25:53;;;;;;;;;;;;;;;29.88;21.95;98857.59;4410646;32;34140;-88
2022/06/22 08:28:21;;;;;;;;;;;;;;;28.45;24.16;98855.78;4422446;32;33812;-87
2022/06/22 08:30:50;;;;;;;;;;;;;;;29.51;23.67;98854.84;4422379;32;33641;-86
2022/06/22 08:33:20;;;;;;;;;;;;;;;28.66;25.07;98861.50;4422245;32;35302;-87
2022/06/22 08:35:49;;;;;;;;;;;;;;;28.26;25.12;98852.56;4422363;32;34810;-87
2022/06/22 08:38:18;;;;;;;;;;;;;;;28.85;25.30;98851.31;4422227;32;34384;-87
2022/06/22 08:40:52;;;;;;;;;;;;;;;27.92;25.69;98854.75;4408221;32;34109;-87
2022/06/22 08:43:19;;;;;;;;;;;;;;;29.21;23.95;98860.50;4408146;32;34443;-87
2022/06/22 08:46:05;;;;;;;;;;;;;;;30.19;22.57;98844.69;4421822;32;34542;-87
2022/06/22 08:48:48;;;;;;;;;;;;;;;30.10;21.95;98840.84;4421926;32;34060;-88
2022/06/22 08:51:16;;;;;;;;;;;;;;;29.89;22.17;98847.75;4408352;32;34600;-87
2022/06/22 08:53:51;;;;;;;;;;;;;;;30.63;21.11;98845.94;4407703;32;33526;-87
2022/06/22 08:56:18;;;;;;;;;;;;;;;29.44;21.51;98853.56;4408269;32;34301;-87
2022/06/22 08:59:04;;;;;;;;;;;;;;;29.01;21.47;98851.16;4422206;32;32887;-87
2022/06/22 09:01:50;;;;;;;;;;;;;;;29.56;20.91;98860.69;4422042;32;35066;-87
2022/06/22 09:04:22;;;;;;;;;;;;;;;29.69;21.03;98854.53;4421670;32;35353;-87
2022/06/22 09:07:09;;;;;;;;;;;;;;;29.41;20.13;98859.09;4408056;32;33812;-85
2022/06/22 09:09:55;;;;;;;;;;;;;;;28.71;20.68;98858.53;4407628;32;33447;-86
2022/06/22 09:12:26;;;;;;;;;;;;;;;28.13;18.57;98860.50;4421894;32;34898;-88
2022/06/22 09:15:02;;;;;;;;;;;;;;;28.65;17.12;98862.47;4407960;32;34426;-85
2022/06/22 09:17:39;;;;;;;;;;;;;;;28.91;19.23;98855.38;4407950;32;35049;-86
2022/06/22 09:20:33;;;;;;;;;;;;;;;29.77;19.63;98849.47;4407570;32;32880;-85
2022/06/22 09:23:12;;;;;;;;;;;;;;;30.36;18.53;98856.84;4408463;32;34666;-87
2022/06/22 09:25:39;;;;;;;;;;;;;;;29.93;18.90;98855.47;4407953;32;34369;-87
2022/06/22 09:28:11;;;;;;;;;;;;;;;29.06;19.70;98848.19;4421585;32;34160;-86
2022/06/22 09:30:54;;;;;;;;;;;;;;;29.11;20.16;98842.53;4407889;32;32828;-87
2022/06/22 09:33:30;;;;;;;;;;;;;;;29.36;19.77;98837.22;4407910;32;34176;-87
2022/06/22 09:36:24;;;;;;;;;;;;;;;30.15;20.60;98827.16;4421711;32;34774;-86
2022/06/22 09:39:14;;;;;;;;;;;;;;;29.99;20.51;98833.63;4419149;32;34571;-87
2022/06/22 09:41:44;;;;;;;;;;;;;;;29.42;21.01;98834.09;4407618;32;32989;-87
2022/06/22 09:44:18;;;;;;;;;;;;;;;30.03;18.93;98828.91;4421499;32;34884;-87
2022/06/22 09:47:01;;;;;;;;;;;;;;;29.96;20.34;98831.16;4407739;32;34150;-87
2022/06/22 09:49:47;;;;;;;;;;;;;;;30.17;20.02;98826.13;4421277;32;35125;-85
2022/06/22 09:52:33;;;;;;;;;;;;;;;30.12;20.38;98827.37;4421456;32;34051;-87
2022/06/22 09:57:52;;;;;;;;;;;;;;;29.36;20.00;98845.22;4409972;32;34360;-88
2022/06/22 10:00:21;;;;;;;;;;;;;;;29.34;19.47;98847.97;4407558;32;34895;-86
2022/06/22 10:03:00;;;;;;;;;;;;;;;30.26;18.53;98830.78;4407723;32;34066;-87
2022/06/22 10:05:45;;;;;;;;;;;;;;;30.55;20.36;98841.16;4407505;32;34212;-86
2022/06/22 10:08:44;;;;;;;;;;;;;;;30.61;18.49;98832.69;4407774;32;35166;-87
2022/06/22 10:11:17;;;;;;;;;;;;;;;29.07;19.89;98834.72;4387500;32;33600;-87
2022/06/22 10:14:04;;;;;;;;;;;;;;;29.78;19.79;98830.69;4407754;32;32930;-87
2022/06/22 10:16:57;;;;;;;;;;;;;;;29.72;19.09;98825.78;4421510;32;34205;-87
2022/06/22 10:19:31;;;;;;;;;;;;;;;29.39;20.84;98831.62;4419046;32;34300;-87
2022/06/22 10:22:08;;;;;;;;;;;;;;;28.73;20.72;98840.63;4394856;32;32662;-86
2022/06/22 10:24:59;;;;;;;;;;;;;;;28.82;21.15;98846.16;4407931;32;32617;-87
2022/06/22 10:27:42;;;;;;;;;;;;;;;30.05;20.92;98837.69;4413322;32;33305;-87
2022/06/22 10:30:15;;;;;;;;;;;;;;;30.09;20.07;98841.84;4407635;32;35189;-87
2022/06/22 10:32:48;;;;;;;;;;;;;;;30.10;20.75;98840.84;4394917;32;32690;-87
2022/06/22 10:35:31;;;;;;;;;;;;;;;31.34;19.81;98834.28;4421354;32;32972;-86
2022/06/22 10:38:17;;;;;;;;;;;;;;;31.07;20.44;98836.38;4406851;32;34087;-87
2022/06/22 10:46:38;;;;;;;;;;;;;;;30.84;19.52;98841.69;4420913;32;33221;-87
2022/06/22 10:49:06;;;;;;;;;;;;;;;30.92;19.94;98835.75;4407515;32;33764;-88
2022/06/22 10:51:36;;;;;;;;;;;;;;;30.27;19.93;98837.00;4421415;32;34958;-87
2022/06/22 10:54:16;;;;;;;;;;;;;;;30.63;19.31;98836.06;4407122;32;32920;-90
2022/06/22 10:56:53;;;;;;;;;;;;;;;30.17;20.36;98846.66;4407052;32;33222;-87
2022/06/22 10:59:49;;;;;;;;;;;;;;;30.65;20.88;98844.84;4394467;32;33143;-88
2022/06/22 11:02:44;;;;;;;;;;;;;;;30.10;19.78;98846.22;4411981;32;34873;-87
2022/06/22 11:05:31;;;;;;;;;;;;;;;30.93;19.59;98843.63;4420841;32;34163;-86
2022/06/22 11:08:18;;;;;;;;;;;;;;;30.77;21.26;98841.28;4421190;32;33304;-86
2022/06/22 11:10:57;;;;;;;;;;;;;;;30.35;20.98;98839.12;4420934;32;34126;-89
2022/06/22 11:13:37;;;;;;;;;;;;;;;31.13;19.90;98828.72;4407083;32;34240;-87
2022/06/22 11:16:18;;;;;;;;;;;;;;;30.77;20.78;98841.28;4407196;32;34628;-88
2022/06/22 11:19:04;;;;;;;;;;;;;;;29.75;21.43;98832.72;4420862;32;33386;-87
2022/06/22 11:22:04;;;;;;;;;;;;;;;30.84;20.04;98835.44;4406878;32;34538;-86
2022/06/22 11:24:52;;;;;;;;;;;;;;;31.02;21.98;98834.03;4349601;32;787526;-87
2022/06/22 11:33:07;;;;;;;;;;;;;;;31.73;20.13;98821.38;4420391;32;34347;-88
2022/06/22 11:35:53;;;;;;;;;;;;;;;31.87;20.96;98831.88;4420398;32;34936;-87
2022/06/22 11:38:35;;;;;;;;;;;;;;;32.36;19.31;98819.84;4420426;32;33575;-89
2022/06/22 11:41:21;;;;;;;;;;;;;;;31.29;18.64;98820.34;4420335;32;32687;-86
2022/06/22 11:43:54;;;;;;;;;;;;;;;32.14;19.83;98803.81;4420354;32;34618;-87
2022/06/22 11:46:30;;;;;;;;;;;;;;;31.07;20.91;98805.09;4406189;32;32737;-87
2022/06/22 11:49:17;;;;;;;;;;;;;;;31.69;21.20;98793.12;4403937;32;34188;-87
2022/06/22 11:51:49;;;;;;;;;;;;;;;32.07;20.49;98792.72;4406214;32;33229;-86
2022/06/22 11:54:20;;;;;;;;;;;;;;;31.97;21.91;98792.62;4381015;32;33165;-87
2022/06/22 11:56:59;;;;;;;;;;;;;;;32.28;20.31;98792.78;4393405;32;34433;-86
2022/06/22 11:59:45;;;;;;;;;;;;;;;31.30;21.55;98798.00;4407004;32;33929;-87
2022/06/22 12:02:23;;;;;;;;;;;;;;;30.76;21.92;98787.84;4407196;32;33304;-88
2022/06/22 12:05:07;;;;;;;;;;;;;;;31.49;20.59;98792.88;4393397;32;35051;-87
2022/06/22 12:07:49;;;;;;;;;;;;;;;30.48;22.96;98797.94;4406774;32;33767;-85
2022/06/22 12:10:32;;;;;;;;;;;;;;;31.94;21.45;98790.19;4393034;32;33993;-86
2022/06/22 12:13:06;;;;;;;;;;;;;;;31.86;19.56;98795.34;4407065;32;33403;-88
2022/06/22 12:15:51;;;;;;;;;;;;;;;31.90;19.81;98782.53;4407359;32;33500;-87
2022/06/22 12:18:25;;;;;;;;;;;;;;;31.60;19.71;98792.03;4406825;32;35085;-87
2022/06/22 12:21:09;;;;;;;;;;;;;;;31.13;19.59;98793.91;4407133;32;34068;-86
2022/06/22 12:23:36;;;;;;;;;;;;;;;31.00;21.54;98788.66;4393406;32;33358;-87
2022/06/22 12:26:03;;;;;;;;;;;;;;;31.90;20.61;98775.34;4407489;32;33849;-86
2022/06/22 12:28:36;;;;;;;;;;;;;;;32.09;20.25;98781.87;4406901;32;34153;-88
2022/06/22 12:31:07;;;;;;;;;;;;;;;32.04;18.99;98774.19;4406960;32;34021;-85
2022/06/22 12:33:36;;;;;;;;;;;;;;;31.44;20.60;98784.38;4393316;32;33225;-87
2022/06/22 12:36:03;;;;;;;;;;;;;;;32.17;19.50;98784.78;4392951;32;34174;-88
2022/06/22 12:38:34;;;;;;;;;;;;;;;31.67;20.04;98777.16;4406776;32;34578;-88
2022/06/22 12:41:24;;;;;;;;;;;;;;;32.57;19.42;98771.59;4395734;32;33868;-85
2022/06/22 12:44:11;;;;;;;;;;;;;;;32.54;21.57;98768.31;4406857;32;34267;-87
2022/06/22 12:46:38;;;;;;;;;;;;;;;31.58;22.14;98761.81;4406501;32;33773;-88
2022/06/22 12:49:26;;;;;;;;;;;;;;;31.94;21.06;98758.03;4413078;32;35182;-87
2022/06/22 12:51:55;;;;;;;;;;;;;;;32.07;21.21;98767.72;4408037;32;34561;-86
2022/06/22 12:54:42;;;;;;;;;;;;;;;31.64;21.85;98749.75;4408376;32;34151;-88
2022/06/22 12:57:13;;;;;;;;;;;;;;;30.79;21.54;98763.53;4395857;32;33478;-86
2022/06/22 12:59:40;;;;;;;;;;;;;;;30.76;22.92;98770.00;4421970;32;34019;-87
2022/06/22 13:02:10;;;;;;;;;;;;;;;31.40;22.60;98752.56;4421626;32;34645;-87
2022/06/22 13:04:37;;;;;;;;;;;;;;;31.48;22.21;98753.69;4408148;32;33401;-87
2022/06/22 13:07:06;;;;;;;;;;;;;;;32.20;21.59;98757.69;4408199;32;33984;-87
2022/06/22 13:09:33;;;;;;;;;;;;;;;32.79;21.13;98757.19;4422168;32;34000;-88
2022/06/22 13:12:02;;;;;;;;;;;;;;;32.56;20.04;98752.94;4408255;32;33489;-87
2022/06/22 13:14:50;;;;;;;;;;;;;;;31.15;21.32;98753.63;4409312;32;33319;-88
2022/06/22 13:17:29;;;;;;;;;;;;;;;32.35;19.84;98747.50;4421884;32;34175;-87
2022/06/22 13:20:00;;;;;;;;;;;;;;;31.93;21.53;98737.53;4408387;32;34782;-88
2022/06/22 13:22:32;;;;;;;;;;;;;;;32.85;20.47;98742.41;4421919;32;34462;-88
2022/06/22 13:25:02;;;;;;;;;;;;;;;32.98;19.23;98743.06;4408078;32;34181;-87
2022/06/22 13:27:30;;;;;;;;;;;;;;;32.34;19.32;98738.59;4407807;32;34127;-88
2022/06/22 13:30:16;;;;;;;;;;;;;;;33.01;18.23;98739.28;4407399;32;33063;-87
2022/06/22 13:33:13;;;;;;;;;;;;;;;32.72;19.09;98742.59;4421737;32;34028;-88
2022/06/22 13:35:54;;;;;;;;;;;;;;;32.34;20.34;98748.50;4409024;32;32811;-87
2022/06/22 13:38:34;;;;;;;;;;;;;;;32.54;19.78;98749.53;4408053;32;34334;-87
2022/06/22 13:41:01;;;;;;;;;;;;;;;31.66;20.13;98743.28;4407815;32;35107;-88
2022/06/22 13:43:55;;;;;;;;;;;;;;;32.12;19.65;98749.41;4407679;32;34934;-87
2022/06/22 13:46:22;;;;;;;;;;;;;;;32.85;19.64;98748.63;4398030;32;33255;-87